sensor_id;sensor_type;location;lat;lon;timestamp;pressure;altitude;pressure_sealevel;temperature;humidity
31225;BME280;17847;31.524;74.366;2023-03-30T00:00:13;98592.91;;;20.80;66.40
31225;BME280;17847;31.524;74.366;2023-03-30T00:02:50;98591.53;;;20.73;66.80
31225;BME280;17847;31.524;74.366;2023-03-30T00:05:22;98604.13;;;20.67;66.66
31225;BME280;17847;31.524;74.366;2023-03-30T00:07:52;98614.13;;;20.67;66.96
31225;BME280;17847;31.524;74.366;2023-03-30T00:10:22;98623.81;;;20.73;67.19
31225;BME280;17847;31.524;74.366;2023-03-30T00:12:52;98636.50;;;20.77;67.51
31225;BME280;17847;31.524;74.366;2023-03-30T00:15:22;98638.72;;;20.85;66.85
31225;BME280;17847;31.524;74.366;2023-03-30T00:17:53;98647.56;;;20.81;66.49
31225;BME280;17847;31.524;74.366;2023-03-30T00:20:23;98648.88;;;20.73;66.06
31225;BME280;17847;31.524;74.366;2023-03-30T00:22:53;98641.06;;;20.77;67.34
31225;BME280;17847;31.524;74.366;2023-03-30T00:25:23;98627.66;;;20.82;67.03
31225;BME280;17847;31.524;74.366;2023-03-30T00:27:54;98633.53;;;21.21;66.07
31225;BME280;17847;31.524;74.366;2023-03-30T00:30:24;98629.84;;;20.90;66.01
31225;BME280;17847;31.524;74.366;2023-03-30T00:32:54;98639.16;;;20.72;65.13
31225;BME280;17847;31.524;74.366;2023-03-30T00:35:26;98643.41;;;20.63;64.72
31225;BME280;17847;31.524;74.366;2023-03-30T00:37:58;98640.13;;;20.56;65.43
31225;BME280;17847;31.524;74.366;2023-03-30T00:40:33;98644.69;;;20.55;65.75
31225;BME280;17847;31.524;74.366;2023-03-30T00:43:06;98643.13;;;20.59;65.88
31225;BME280;17847;31.524;74.366;2023-03-30T00:45:40;98638.94;;;20.79;65.91
31225;BME280;17847;31.524;74.366;2023-03-30T00:48:27;98655.03;;;21.11;65.84
31225;BME280;17847;31.524;74.366;2023-03-30T00:51:04;98660.97;;;20.76;66.76
31225;BME280;17847;31.524;74.366;2023-03-30T00:53:51;98655.56;;;20.66;68.41
31225;BME280;17847;31.524;74.366;2023-03-30T00:56:28;98657.88;;;20.94;67.91
31225;BME280;17847;31.524;74.366;2023-03-30T00:59:00;98662.34;;;21.20;66.89
31225;BME280;17847;31.524;74.366;2023-03-30T01:01:31;98676.63;;;20.79;67.49
31225;BME280;17847;31.524;74.366;2023-03-30T01:04:08;98700.06;;;20.46;68.74
31225;BME280;17847;31.524;74.366;2023-03-30T01:06:39;98713.00;;;20.49;68.82
31225;BME280;17847;31.524;74.366;2023-03-30T01:09:15;98707.13;;;20.52;69.23
31225;BME280;17847;31.524;74.366;2023-03-30T01:11:46;98706.50;;;20.77;68.96
31225;BME280;17847;31.524;74.366;2023-03-30T01:14:17;98706.41;;;20.62;69.71
31225;BME280;17847;31.524;74.366;2023-03-30T01:16:55;98711.94;;;20.50;69.74
31225;BME280;17847;31.524;74.366;2023-03-30T01:25:38;98715.00;;;20.32;70.97
31225;BME280;17847;31.524;74.366;2023-03-30T01:42:23;98697.94;;;20.22;72.90
31225;BME280;17847;31.524;74.366;2023-03-30T01:47:37;98714.91;;;20.00;73.79
31225;BME280;17847;31.524;74.366;2023-03-30T01:50:16;98712.53;;;20.04;74.13
31225;BME280;17847;31.524;74.366;2023-03-30T01:55:47;98715.06;;;20.15;73.44
31225;BME280;17847;31.524;74.366;2023-03-30T02:01:03;98744.34;;;20.12;73.57
31225;BME280;17847;31.524;74.366;2023-03-30T02:03:36;98757.81;;;20.12;73.77
31225;BME280;17847;31.524;74.366;2023-03-30T02:06:22;98770.81;;;19.98;73.80
31225;BME280;17847;31.524;74.366;2023-03-30T02:08:57;98768.44;;;20.02;73.75
31225;BME280;17847;31.524;74.366;2023-03-30T02:11:30;98770.50;;;20.16;74.17
31225;BME280;17847;31.524;74.366;2023-03-30T02:14:03;98768.91;;;20.21;73.75
31225;BME280;17847;31.524;74.366;2023-03-30T02:16:45;98753.97;;;20.30;74.87
31225;BME280;17847;31.524;74.366;2023-03-30T02:19:18;98754.41;;;20.75;72.50
31225;BME280;17847;31.524;74.366;2023-03-30T02:21:48;98739.22;;;20.64;72.72
31225;BME280;17847;31.524;74.366;2023-03-30T02:24:22;98742.28;;;20.46;73.69
31225;BME280;17847;31.524;74.366;2023-03-30T02:26:54;98740.75;;;20.28;73.15
31225;BME280;17847;31.524;74.366;2023-03-30T02:29:25;98746.22;;;20.33;73.15
31225;BME280;17847;31.524;74.366;2023-03-30T02:31:56;98750.84;;;20.38;72.30
31225;BME280;17847;31.524;74.366;2023-03-30T02:34:44;98741.47;;;20.45;71.40
31225;BME280;17847;31.524;74.366;2023-03-30T02:37:41;98727.16;;;20.67;71.88
31225;BME280;17847;31.524;74.366;2023-03-30T02:41:25;98727.59;;;20.90;70.79
31225;BME280;17847;31.524;74.366;2023-03-30T02:55:19;98715.50;;;21.35;67.49
31225;BME280;17847;31.524;74.366;2023-03-30T03:04:09;98707.72;;;21.43;68.12
31225;BME280;17847;31.524;74.366;2023-03-30T03:07:13;98707.72;;;21.43;67.36
31225;BME280;17847;31.524;74.366;2023-03-30T03:09:50;98698.09;;;21.58;67.42
31225;BME280;17847;31.524;74.366;2023-03-30T03:12:22;98682.91;;;22.04;66.85
31225;BME280;17847;31.524;74.366;2023-03-30T03:14:56;98679.41;;;22.08;65.46
31225;BME280;17847;31.524;74.366;2023-03-30T03:17:26;98694.84;;;21.56;65.83
31225;BME280;17847;31.524;74.366;2023-03-30T03:20:07;98688.56;;;22.17;65.96
31225;BME280;17847;31.524;74.366;2023-03-30T03:22:42;98691.28;;;22.17;65.02
31225;BME280;17847;31.524;74.366;2023-03-30T03:25:13;98689.69;;;22.47;62.88
31225;BME280;17847;31.524;74.366;2023-03-30T03:27:55;98695.63;;;22.49;62.19
31225;BME280;17847;31.524;74.366;2023-03-30T03:30:29;98687.25;;;22.91;61.68
31225;BME280;17847;31.524;74.366;2023-03-30T03:33:08;98691.47;;;23.47;60.16
31225;BME280;17847;31.524;74.366;2023-03-30T03:35:44;98683.56;;;23.66;57.95
31225;BME280;17847;31.524;74.366;2023-03-30T03:38:14;98690.03;;;23.70;57.87
31225;BME280;17847;31.524;74.366;2023-03-30T03:40:53;98689.88;;;23.95;57.82
31225;BME280;17847;31.524;74.366;2023-03-30T03:43:26;98681.25;;;23.93;56.40
31225;BME280;17847;31.524;74.366;2023-03-30T03:45:57;98690.84;;;23.65;58.47
31225;BME280;17847;31.524;74.366;2023-03-30T03:48:27;98692.91;;;23.89;58.61
31225;BME280;17847;31.524;74.366;2023-03-30T03:50:58;98696.81;;;23.62;58.32
31225;BME280;17847;31.524;74.366;2023-03-30T03:53:33;98709.56;;;23.42;57.68
31225;BME280;17847;31.524;74.366;2023-03-30T03:56:08;98706.28;;;23.60;58.82
31225;BME280;17847;31.524;74.366;2023-03-30T03:58:40;98708.44;;;23.63;58.09
31225;BME280;17847;31.524;74.366;2023-03-30T04:01:11;98701.69;;;23.60;58.84
31225;BME280;17847;31.524;74.366;2023-03-30T04:03:43;98696.25;;;23.70;58.05
31225;BME280;17847;31.524;74.366;2023-03-30T04:06:16;98695.44;;;23.65;58.50
31225;BME280;17847;31.524;74.366;2023-03-30T04:08:47;98703.16;;;23.92;57.49
31225;BME280;17847;31.524;74.366;2023-03-30T04:11:38;98705.56;;;23.98;57.57
31225;BME280;17847;31.524;74.366;2023-03-30T04:14:26;98696.69;;;23.88;56.88
31225;BME280;17847;31.524;74.366;2023-03-30T04:17:16;98698.09;;;23.80;58.36
31225;BME280;17847;31.524;74.366;2023-03-30T04:20:16;98695.31;;;23.90;58.07
31225;BME280;17847;31.524;74.366;2023-03-30T04:23:17;98699.63;;;23.96;57.98
31225;BME280;17847;31.524;74.366;2023-03-30T04:26:08;98689.72;;;24.26;57.96
31225;BME280;17847;31.524;74.366;2023-03-30T04:28:49;98688.16;;;24.14;57.99
31225;BME280;17847;31.524;74.366;2023-03-30T04:31:42;98687.91;;;24.50;58.09
31225;BME280;17847;31.524;74.366;2023-03-30T04:34:16;98699.69;;;24.69;56.38
31225;BME280;17847;31.524;74.366;2023-03-30T04:37:11;98685.16;;;24.89;55.62
31225;BME280;17847;31.524;74.366;2023-03-30T04:40:07;98697.19;;;25.07;54.86
31225;BME280;17847;31.524;74.366;2023-03-30T04:42:59;98691.56;;;25.27;53.25
31225;BME280;17847;31.524;74.366;2023-03-30T04:46:01;98695.03;;;25.56;53.61
31225;BME280;17847;31.524;74.366;2023-03-30T04:48:49;98693.88;;;25.81;51.14
31225;BME280;17847;31.524;74.366;2023-03-30T04:51:37;98688.72;;;26.22;49.66
31225;BME280;17847;31.524;74.366;2023-03-30T04:54:12;98682.69;;;26.25;49.31
31225;BME280;17847;31.524;74.366;2023-03-30T04:57:03;98681.94;;;26.38;48.20
31225;BME280;17847;31.524;74.366;2023-03-30T04:59:44;98687.59;;;26.93;46.49
31225;BME280;17847;31.524;74.366;2023-03-30T05:02:33;98695.47;;;26.94;48.25
31225;BME280;17847;31.524;74.366;2023-03-30T05:05:29;98688.34;;;27.12;48.07
31225;BME280;17847;31.524;74.366;2023-03-30T05:08:28;98686.09;;;27.00;46.04
31225;BME280;17847;31.524;74.366;2023-03-30T05:11:12;98688.81;;;27.14;48.17
31225;BME280;17847;31.524;74.366;2023-03-30T05:13:56;98686.22;;;27.36;48.68
31225;BME280;17847;31.524;74.366;2023-03-30T05:16:55;98682.31;;;27.56;45.71
31225;BME280;17847;31.524;74.366;2023-03-30T05:19:45;98673.81;;;27.85;47.28
31225;BME280;17847;31.524;74.366;2023-03-30T05:22:29;98680.88;;;27.86;46.04
31225;BME280;17847;31.524;74.366;2023-03-30T05:25:42;98674.38;;;28.09;43.18
31225;BME280;17847;31.524;74.366;2023-03-30T05:28:37;98672.16;;;28.11;41.62
31225;BME280;17847;31.524;74.366;2023-03-30T05:31:20;98666.53;;;27.94;41.53
31225;BME280;17847;31.524;74.366;2023-03-30T05:34:17;98667.38;;;27.81;42.44
31225;BME280;17847;31.524;74.366;2023-03-30T05:37:13;98660.09;;;28.48;44.81
31225;BME280;17847;31.524;74.366;2023-03-30T05:39:55;98668.28;;;28.70;40.66
31225;BME280;17847;31.524;74.366;2023-03-30T05:42:43;98659.53;;;28.37;42.31
31225;BME280;17847;31.524;74.366;2023-03-30T05:45:27;98660.34;;;28.02;41.94
31225;BME280;17847;31.524;74.366;2023-03-30T05:48:18;98665.44;;;27.81;41.29
31225;BME280;17847;31.524;74.366;2023-03-30T05:51:04;98662.75;;;27.67;42.28
31225;BME280;17847;31.524;74.366;2023-03-30T05:53:51;98645.78;;;27.70;42.53
31225;BME280;17847;31.524;74.366;2023-03-30T05:56:44;98639.47;;;28.11;42.83
31225;BME280;17847;31.524;74.366;2023-03-30T05:59:24;98641.09;;;28.12;42.65
31225;BME280;17847;31.524;74.366;2023-03-30T06:02:23;98638.19;;;27.95;44.19
31225;BME280;17847;31.524;74.366;2023-03-30T06:05:01;98631.09;;;28.07;41.88
31225;BME280;17847;31.524;74.366;2023-03-30T06:07:32;98630.50;;;27.75;42.20
31225;BME280;17847;31.524;74.366;2023-03-30T06:10:03;98630.91;;;28.04;41.60
31225;BME280;17847;31.524;74.366;2023-03-30T06:12:34;98624.53;;;28.08;41.92
31225;BME280;17847;31.524;74.366;2023-03-30T06:15:06;98629.66;;;27.88;41.58
31225;BME280;17847;31.524;74.366;2023-03-30T06:17:45;98621.44;;;27.65;39.70
31225;BME280;17847;31.524;74.366;2023-03-30T06:20:16;98614.50;;;27.95;39.42
31225;BME280;17847;31.524;74.366;2023-03-30T06:22:51;98606.63;;;27.94;39.23
31225;BME280;17847;31.524;74.366;2023-03-30T06:25:23;98594.22;;;28.24;40.29
31225;BME280;17847;31.524;74.366;2023-03-30T06:27:55;98598.53;;;28.47;38.65
31225;BME280;17847;31.524;74.366;2023-03-30T06:30:26;98593.81;;;28.61;40.06
31225;BME280;17847;31.524;74.366;2023-03-30T06:33:02;98602.97;;;28.65;40.28
31225;BME280;17847;31.524;74.366;2023-03-30T06:35:49;98584.41;;;28.67;40.65
31225;BME280;17847;31.524;74.366;2023-03-30T06:38:24;98589.22;;;29.01;40.44
31225;BME280;17847;31.524;74.366;2023-03-30T06:40:56;98578.50;;;29.22;39.81
31225;BME280;17847;31.524;74.366;2023-03-30T06:43:28;98578.19;;;29.15;40.44
31225;BME280;17847;31.524;74.366;2023-03-30T06:46:07;98568.75;;;29.21;38.19
31225;BME280;17847;31.524;74.366;2023-03-30T06:48:41;98571.09;;;29.05;41.10
31225;BME280;17847;31.524;74.366;2023-03-30T06:51:40;98568.31;;;28.88;38.55
31225;BME280;17847;31.524;74.366;2023-03-30T06:54:12;98570.66;;;28.72;39.75
31225;BME280;17847;31.524;74.366;2023-03-30T06:56:50;98569.16;;;28.66;38.98
31225;BME280;17847;31.524;74.366;2023-03-30T06:59:22;98565.13;;;28.10;39.70
31225;BME280;17847;31.524;74.366;2023-03-30T07:02:16;98562.31;;;28.77;40.14
31225;BME280;17847;31.524;74.366;2023-03-30T07:04:57;98554.47;;;28.45;39.57
31225;BME280;17847;31.524;74.366;2023-03-30T07:07:52;98556.28;;;28.89;40.72
31225;BME280;17847;31.524;74.366;2023-03-30T07:10:22;98542.16;;;28.56;41.54
31225;BME280;17847;31.524;74.366;2023-03-30T07:12:55;98545.94;;;28.16;40.30
31225;BME280;17847;31.524;74.366;2023-03-30T07:15:25;98541.19;;;28.52;40.95
31225;BME280;17847;31.524;74.366;2023-03-30T07:17:56;98530.00;;;28.93;41.59
31225;BME280;17847;31.524;74.366;2023-03-30T07:20:27;98536.97;;;28.77;40.11
31225;BME280;17847;31.524;74.366;2023-03-30T07:23:19;98523.09;;;28.95;39.65
31225;BME280;17847;31.524;74.366;2023-03-30T07:25:52;98530.59;;;29.29;40.78
31225;BME280;17847;31.524;74.366;2023-03-30T07:28:32;98521.66;;;28.89;40.11
31225;BME280;17847;31.524;74.366;2023-03-30T07:31:08;98521.72;;;29.15;40.48
31225;BME280;17847;31.524;74.366;2023-03-30T07:33:41;98519.13;;;29.19;40.36
31225;BME280;17847;31.524;74.366;2023-03-30T07:36:15;98508.13;;;28.76;41.10
31225;BME280;17847;31.524;74.366;2023-03-30T07:38:46;98511.59;;;29.07;41.45
31225;BME280;17847;31.524;74.366;2023-03-30T07:41:16;98510.31;;;29.13;41.71
31225;BME280;17847;31.524;74.366;2023-03-30T07:43:52;98501.34;;;29.30;43.40
31225;BME280;17847;31.524;74.366;2023-03-30T07:46:22;98505.75;;;28.91;42.42
31225;BME280;17847;31.524;74.366;2023-03-30T07:48:54;98504.25;;;29.25;42.93
31225;BME280;17847;31.524;74.366;2023-03-30T07:51:26;98502.63;;;29.24;40.16
31225;BME280;17847;31.524;74.366;2023-03-30T07:54:05;98501.53;;;29.33;40.42
31225;BME280;17847;31.524;74.366;2023-03-30T07:56:55;98491.44;;;29.42;40.90
31225;BME280;17847;31.524;74.366;2023-03-30T07:59:26;98483.41;;;29.37;38.64
31225;BME280;17847;31.524;74.366;2023-03-30T08:02:11;98483.66;;;29.10;40.24
31225;BME280;17847;31.524;74.366;2023-03-30T08:04:49;98480.94;;;29.01;37.01
31225;BME280;17847;31.524;74.366;2023-03-30T08:07:31;98474.22;;;29.16;37.90
31225;BME280;17847;31.524;74.366;2023-03-30T08:10:11;98472.09;;;29.05;38.16
31225;BME280;17847;31.524;74.366;2023-03-30T08:12:42;98466.50;;;29.01;35.87
31225;BME280;17847;31.524;74.366;2023-03-30T08:15:12;98460.88;;;28.97;37.46
31225;BME280;17847;31.524;74.366;2023-03-30T08:17:42;98455.44;;;29.06;38.14
31225;BME280;17847;31.524;74.366;2023-03-30T08:20:13;98444.03;;;29.13;38.19
31225;BME280;17847;31.524;74.366;2023-03-30T08:22:43;98437.59;;;28.91;38.76
31225;BME280;17847;31.524;74.366;2023-03-30T08:25:14;98430.88;;;29.06;38.24
31225;BME280;17847;31.524;74.366;2023-03-30T08:27:44;98424.75;;;28.92;38.20
31225;BME280;17847;31.524;74.366;2023-03-30T08:30:15;98421.41;;;29.12;38.25
31225;BME280;17847;31.524;74.366;2023-03-30T08:32:46;98405.97;;;28.90;36.98
31225;BME280;17847;31.524;74.366;2023-03-30T08:35:16;98403.91;;;28.96;37.69
31225;BME280;17847;31.524;74.366;2023-03-30T08:37:47;98406.81;;;29.08;38.34
31225;BME280;17847;31.524;74.366;2023-03-30T08:40:17;98396.22;;;28.98;38.27
31225;BME280;17847;31.524;74.366;2023-03-30T08:43:12;98405.22;;;28.98;37.35
31225;BME280;17847;31.524;74.366;2023-03-30T08:45:47;98407.28;;;28.76;36.39
31225;BME280;17847;31.524;74.366;2023-03-30T08:48:24;98393.31;;;28.86;40.14
31225;BME280;17847;31.524;74.366;2023-03-30T08:51:11;98390.41;;;28.74;38.52
31225;BME280;17847;31.524;74.366;2023-03-30T08:53:43;98385.47;;;28.76;37.90
31225;BME280;17847;31.524;74.366;2023-03-30T08:56:25;98383.16;;;28.69;37.37
31225;BME280;17847;31.524;74.366;2023-03-30T09:10:17;98353.38;;;28.73;36.85
31225;BME280;17847;31.524;74.366;2023-03-30T09:12:55;98356.44;;;28.80;37.06
31225;BME280;17847;31.524;74.366;2023-03-30T09:15:40;98346.34;;;28.89;38.49
31225;BME280;17847;31.524;74.366;2023-03-30T09:18:25;98346.00;;;28.90;36.91
31225;BME280;17847;31.524;74.366;2023-03-30T09:21:00;98341.34;;;28.74;36.35
31225;BME280;17847;31.524;74.366;2023-03-30T09:23:32;98328.50;;;28.66;36.23
31225;BME280;17847;31.524;74.366;2023-03-30T09:26:26;98323.84;;;28.57;36.52
31225;BME280;17847;31.524;74.366;2023-03-30T09:29:25;98323.84;;;28.66;36.64
31225;BME280;17847;31.524;74.366;2023-03-30T09:35:01;98318.88;;;28.77;39.88
31225;BME280;17847;31.524;74.366;2023-03-30T09:37:34;98309.72;;;28.55;40.53
31225;BME280;17847;31.524;74.366;2023-03-30T09:43:14;98313.72;;;28.32;40.04
31225;BME280;17847;31.524;74.366;2023-03-30T09:45:46;98304.06;;;28.26;39.18
31225;BME280;17847;31.524;74.366;2023-03-30T09:48:16;98305.31;;;28.20;39.58
31225;BME280;17847;31.524;74.366;2023-03-30T09:50:47;98290.44;;;28.26;39.96
31225;BME280;17847;31.524;74.366;2023-03-30T09:53:24;98291.28;;;28.35;40.58
31225;BME280;17847;31.524;74.366;2023-03-30T09:56:06;98278.44;;;28.27;40.32
31225;BME280;17847;31.524;74.366;2023-03-30T09:58:38;98277.16;;;28.42;40.85
31225;BME280;17847;31.524;74.366;2023-03-30T10:01:15;98277.97;;;28.42;40.10
31225;BME280;17847;31.524;74.366;2023-03-30T10:04:08;98269.13;;;28.28;39.64
31225;BME280;17847;31.524;74.366;2023-03-30T10:06:46;98263.16;;;28.09;39.14
31225;BME280;17847;31.524;74.366;2023-03-30T10:09:20;98255.19;;;28.12;40.97
31225;BME280;17847;31.524;74.366;2023-03-30T10:11:54;98256.78;;;28.13;40.75
31225;BME280;17847;31.524;74.366;2023-03-30T10:14:33;98256.72;;;27.96;40.52
31225;BME280;17847;31.524;74.366;2023-03-30T10:17:04;98240.38;;;27.96;40.62
31225;BME280;17847;31.524;74.366;2023-03-30T10:19:40;98239.41;;;27.84;40.39
31225;BME280;17847;31.524;74.366;2023-03-30T10:22:17;98227.88;;;27.95;40.53
31225;BME280;17847;31.524;74.366;2023-03-30T10:24:54;98220.59;;;28.13;40.39
31225;BME280;17847;31.524;74.366;2023-03-30T10:27:31;98224.13;;;28.22;39.49
31225;BME280;17847;31.524;74.366;2023-03-30T10:30:11;98227.31;;;28.24;40.39
31225;BME280;17847;31.524;74.366;2023-03-30T10:32:47;98210.97;;;28.24;41.75
31225;BME280;17847;31.524;74.366;2023-03-30T10:35:22;98211.75;;;28.16;41.89
31225;BME280;17847;31.524;74.366;2023-03-30T10:37:54;98206.81;;;28.18;41.52
31225;BME280;17847;31.524;74.366;2023-03-30T10:43:05;98195.78;;;28.23;40.57
31225;BME280;17847;31.524;74.366;2023-03-30T10:45:52;98187.25;;;28.16;39.81
31225;BME280;17847;31.524;74.366;2023-03-30T10:48:43;98195.09;;;28.09;39.60
31225;BME280;17847;31.524;74.366;2023-03-30T10:57:14;98182.63;;;28.17;39.11
31225;BME280;17847;31.524;74.366;2023-03-30T11:05:14;98192.41;;;28.18;41.49
31225;BME280;17847;31.524;74.366;2023-03-30T11:08:12;98189.50;;;28.23;41.67
31225;BME280;17847;31.524;74.366;2023-03-30T11:10:49;98192.03;;;28.10;41.97
31225;BME280;17847;31.524;74.366;2023-03-30T11:16:14;98190.44;;;28.01;42.11
31225;BME280;17847;31.524;74.366;2023-03-30T11:19:02;98178.72;;;27.83;42.98
31225;BME280;17847;31.524;74.366;2023-03-30T11:22:02;98175.50;;;27.81;42.47
31225;BME280;17847;31.524;74.366;2023-03-30T11:24:34;98176.59;;;27.72;42.01
31225;BME280;17847;31.524;74.366;2023-03-30T11:30:02;98169.22;;;27.72;42.54
31225;BME280;17847;31.524;74.366;2023-03-30T11:39:01;98159.75;;;27.52;41.24
31225;BME280;17847;31.524;74.366;2023-03-30T11:42:02;98157.59;;;27.41;41.64
31225;BME280;17847;31.524;74.366;2023-03-30T11:44:37;98161.28;;;27.45;41.22
31225;BME280;17847;31.524;74.366;2023-03-30T11:54:59;98143.97;;;27.32;42.29
31225;BME280;17847;31.524;74.366;2023-03-30T11:57:36;98137.41;;;27.33;41.77
31225;BME280;17847;31.524;74.366;2023-03-30T12:00:31;98133.09;;;27.32;42.23
31225;BME280;17847;31.524;74.366;2023-03-30T12:05:59;98134.34;;;27.26;41.42
31225;BME280;17847;31.524;74.366;2023-03-30T12:19:56;98144.56;;;27.20;41.80
31225;BME280;17847;31.524;74.366;2023-03-30T12:28:02;98141.31;;;27.10;42.15
31225;BME280;17847;31.524;74.366;2023-03-30T12:30:53;98150.56;;;27.09;41.61
31225;BME280;17847;31.524;74.366;2023-03-30T12:36:37;98141.75;;;26.95;42.11
31225;BME280;17847;31.524;74.366;2023-03-30T12:39:21;98144.19;;;26.82;42.73
31225;BME280;17847;31.524;74.366;2023-03-30T12:47:12;98141.00;;;26.80;43.53
31225;BME280;17847;31.524;74.366;2023-03-30T12:55:53;98157.06;;;26.68;43.46
31225;BME280;17847;31.524;74.366;2023-03-30T13:01:38;98157.38;;;26.67;44.68
31225;BME280;17847;31.524;74.366;2023-03-30T13:04:17;98151.25;;;26.61;44.25
31225;BME280;17847;31.524;74.366;2023-03-30T13:07:00;98156.81;;;26.56;43.01
31225;BME280;17847;31.524;74.366;2023-03-30T13:09:33;98155.03;;;26.52;44.04
31225;BME280;17847;31.524;74.366;2023-03-30T13:12:05;98162.38;;;26.51;44.94
31225;BME280;17847;31.524;74.366;2023-03-30T13:25:46;98161.25;;;25.94;36.81
31225;BME280;17847;31.524;74.366;2023-03-30T13:34:39;98168.81;;;25.15;48.77
31225;BME280;17847;31.524;74.366;2023-03-30T13:42:42;98167.28;;;24.63;53.14
31225;BME280;17847;31.524;74.366;2023-03-30T13:45:24;98172.09;;;24.66;52.53
31225;BME280;17847;31.524;74.366;2023-03-30T13:48:54;98176.94;;;24.69;53.85
31225;BME280;17847;31.524;74.366;2023-03-30T13:51:02;98183.13;;;24.70;54.55
31225;BME280;17847;31.524;74.366;2023-03-30T13:53:40;98187.19;;;24.53;53.63
31225;BME280;17847;31.524;74.366;2023-03-30T13:56:13;98210.34;;;24.46;52.29
31225;BME280;17847;31.524;74.366;2023-03-30T14:01:28;98227.06;;;24.48;56.31
31225;BME280;17847;31.524;74.366;2023-03-30T14:03:59;98227.25;;;24.19;57.37
31225;BME280;17847;31.524;74.366;2023-03-30T14:06:33;98239.44;;;23.50;59.63
31225;BME280;17847;31.524;74.366;2023-03-30T14:09:17;98242.59;;;23.28;59.92
31225;BME280;17847;31.524;74.366;2023-03-30T14:17:00;98272.78;;;22.34;63.20
31225;BME280;17847;31.524;74.366;2023-03-30T14:19:36;98281.25;;;22.12;62.93
31225;BME280;17847;31.524;74.366;2023-03-30T14:22:16;98294.56;;;21.93;63.22
31225;BME280;17847;31.524;74.366;2023-03-30T14:25:00;98301.00;;;21.87;63.01
31225;BME280;17847;31.524;74.366;2023-03-30T14:27:36;98311.53;;;21.84;62.87
31225;BME280;17847;31.524;74.366;2023-03-30T14:30:20;98315.06;;;21.79;63.16
31225;BME280;17847;31.524;74.366;2023-03-30T14:33:10;98316.94;;;21.74;63.33
31225;BME280;17847;31.524;74.366;2023-03-30T14:35:48;98317.25;;;21.67;63.63
31225;BME280;17847;31.524;74.366;2023-03-30T14:38:32;98318.59;;;21.65;63.95
31225;BME280;17847;31.524;74.366;2023-03-30T14:41:23;98303.53;;;21.64;64.20
31225;BME280;17847;31.524;74.366;2023-03-30T14:44:02;98317.53;;;21.61;64.58
31225;BME280;17847;31.524;74.366;2023-03-30T14:46:38;98315.06;;;21.69;64.82
31225;BME280;17847;31.524;74.366;2023-03-30T14:49:21;98310.25;;;21.61;65.93
31225;BME280;17847;31.524;74.366;2023-03-30T14:52:08;98313.25;;;21.44;66.16
31225;BME280;17847;31.524;74.366;2023-03-30T14:54:40;98307.63;;;21.31;66.46
31225;BME280;17847;31.524;74.366;2023-03-30T14:57:35;98323.25;;;21.24;67.00
31225;BME280;17847;31.524;74.366;2023-03-30T15:00:12;98315.69;;;21.26;66.76
31225;BME280;17847;31.524;74.366;2023-03-30T15:02:57;98304.91;;;21.16;66.29
31225;BME280;17847;31.524;74.366;2023-03-30T15:05:35;98300.59;;;21.04;66.42
31225;BME280;17847;31.524;74.366;2023-03-30T15:08:20;98301.66;;;21.03;66.29
31225;BME280;17847;31.524;74.366;2023-03-30T15:10:54;98297.09;;;20.99;65.95
31225;BME280;17847;31.524;74.366;2023-03-30T15:13:35;98303.28;;;20.94;66.20
31225;BME280;17847;31.524;74.366;2023-03-30T15:16:24;98304.09;;;21.00;65.19
31225;BME280;17847;31.524;74.366;2023-03-30T15:19:04;98307.59;;;21.00;64.73
31225;BME280;17847;31.524;74.366;2023-03-30T15:21:36;98310.56;;;20.99;64.03
31225;BME280;17847;31.524;74.366;2023-03-30T15:24:22;98311.66;;;21.13;64.68
31225;BME280;17847;31.524;74.366;2023-03-30T15:27:02;98323.50;;;21.17;63.44
31225;BME280;17847;31.524;74.366;2023-03-30T15:29:34;98320.25;;;21.05;63.29
31225;BME280;17847;31.524;74.366;2023-03-30T15:32:15;98322.69;;;21.01;63.70
31225;BME280;17847;31.524;74.366;2023-03-30T15:37:33;98326.16;;;21.07;62.43
31225;BME280;17847;31.524;74.366;2023-03-30T15:43:21;98325.38;;;21.06;62.74
31225;BME280;17847;31.524;74.366;2023-03-30T15:45:55;98321.63;;;21.13;63.21
31225;BME280;17847;31.524;74.366;2023-03-30T15:48:34;98317.06;;;21.18;63.48
31225;BME280;17847;31.524;74.366;2023-03-30T15:51:30;98319.19;;;21.01;62.95
31225;BME280;17847;31.524;74.366;2023-03-30T15:54:13;98326.19;;;20.97;63.19
31225;BME280;17847;31.524;74.366;2023-03-30T15:56:56;98319.44;;;20.89;63.09
31225;BME280;17847;31.524;74.366;2023-03-30T15:59:35;98322.41;;;20.88;63.42
31225;BME280;17847;31.524;74.366;2023-03-30T16:02:15;98325.63;;;20.90;63.45
31225;BME280;17847;31.524;74.366;2023-03-30T16:04:46;98329.66;;;20.87;63.53
31225;BME280;17847;31.524;74.366;2023-03-30T16:07:23;98337.47;;;20.79;64.36
31225;BME280;17847;31.524;74.366;2023-03-30T16:09:53;98333.97;;;20.78;63.92
31225;BME280;17847;31.524;74.366;2023-03-30T16:12:29;98347.66;;;20.72;64.86
31225;BME280;17847;31.524;74.366;2023-03-30T16:15:00;98351.97;;;20.57;64.82
31225;BME280;17847;31.524;74.366;2023-03-30T16:17:32;98366.22;;;20.53;65.45
31225;BME280;17847;31.524;74.366;2023-03-30T16:20:15;98369.44;;;20.55;65.53
31225;BME280;17847;31.524;74.366;2023-03-30T16:22:47;98379.59;;;20.38;69.82
31225;BME280;17847;31.524;74.366;2023-03-30T16:25:21;98388.59;;;20.11;70.14
31225;BME280;17847;31.524;74.366;2023-03-30T16:28:05;98356.53;;;20.57;76.09
31225;BME280;17847;31.524;74.366;2023-03-30T16:30:39;98336.03;;;20.46;76.10
31225;BME280;17847;31.524;74.366;2023-03-30T16:33:10;98321.69;;;20.25;76.32
31225;BME280;17847;31.524;74.366;2023-03-30T16:35:42;98298.84;;;20.28;79.27
31225;BME280;17847;31.524;74.366;2023-03-30T16:38:16;98306.09;;;20.17;78.24
31225;BME280;17847;31.524;74.366;2023-03-30T16:40:57;98302.53;;;20.06;80.60